sensor_id;sensor_type;location;lat;lon;timestamp;temperature;humidity
28654;DHT22;24320;56.980;24.336;2023-02-28T00:00:00;-0.60;99.90
28654;DHT22;24320;56.980;24.336;2023-02-28T00:02:27;-0.50;99.90
28654;DHT22;24320;56.980;24.336;2023-02-28T00:04:54;-0.50;99.90
28654;DHT22;24320;56.980;24.336;2023-02-28T00:07:27;-0.40;99.90
28654;DHT22;24320;56.980;24.336;2023-02-28T00:09:54;-0.40;99.90
28654;DHT22;24320;56.980;24.336;2023-02-28T00:12:21;-0.40;99.90
28654;DHT22;24320;56.980;24.336;2023-02-28T00:14:49;-0.40;99.90
28654;DHT22;24320;56.980;24.336;2023-02-28T00:17:16;-0.40;99.90
28654;DHT22;24320;56.980;24.336;2023-02-28T00:19:48;-0.40;99.90
28654;DHT22;24320;56.980;24.336;2023-02-28T00:22:16;-0.40;99.90
28654;DHT22;24320;56.980;24.336;2023-02-28T00:24:44;-0.50;99.90
28654;DHT22;24320;56.980;24.336;2023-02-28T00:27:11;-0.50;99.90
28654;DHT22;24320;56.980;24.336;2023-02-28T00:29:38;-0.60;99.90
28654;DHT22;24320;56.980;24.336;2023-02-28T00:32:06;-0.60;99.90
28654;DHT22;24320;56.980;24.336;2023-02-28T00:34:33;-0.70;99.90
28654;DHT22;24320;56.980;24.336;2023-02-28T00:37:08;-0.80;99.90
28654;DHT22;24320;56.980;24.336;2023-02-28T00:39:38;-0.80;99.90
28654;DHT22;24320;56.980;24.336;2023-02-28T00:42:07;-0.90;99.90
28654;DHT22;24320;56.980;24.336;2023-02-28T00:44:34;-1.00;99.90
28654;DHT22;24320;56.980;24.336;2023-02-28T00:47:01;-1.00;99.90
28654;DHT22;24320;56.980;24.336;2023-02-28T00:49:28;-1.10;99.90
28654;DHT22;24320;56.980;24.336;2023-02-28T00:51:55;-1.10;99.90
28654;DHT22;24320;56.980;24.336;2023-02-28T00:54:23;-1.20;99.90
28654;DHT22;24320;56.980;24.336;2023-02-28T00:56:50;-1.30;99.90
28654;DHT22;24320;56.980;24.336;2023-02-28T00:59:18;-1.30;99.90
28654;DHT22;24320;56.980;24.336;2023-02-28T01:01:46;-1.40;99.90
28654;DHT22;24320;56.980;24.336;2023-02-28T01:04:14;-1.50;99.90
28654;DHT22;24320;56.980;24.336;2023-02-28T01:06:41;-1.60;99.90
28654;DHT22;24320;56.980;24.336;2023-02-28T01:09:09;-1.70;99.90
28654;DHT22;24320;56.980;24.336;2023-02-28T01:11:36;-1.80;99.90
28654;DHT22;24320;56.980;24.336;2023-02-28T01:14:04;-1.90;99.90
28654;DHT22;24320;56.980;24.336;2023-02-28T01:16:31;-2.00;99.90
28654;DHT22;24320;56.980;24.336;2023-02-28T01:18:58;-2.00;99.90
28654;DHT22;24320;56.980;24.336;2023-02-28T01:21:25;-2.10;99.90
28654;DHT22;24320;56.980;24.336;2023-02-28T01:23:56;-2.20;99.90
28654;DHT22;24320;56.980;24.336;2023-02-28T01:26:24;-2.20;99.90
28654;DHT22;24320;56.980;24.336;2023-02-28T01:28:52;-2.30;99.90
28654;DHT22;24320;56.980;24.336;2023-02-28T01:31:20;-2.40;99.90
28654;DHT22;24320;56.980;24.336;2023-02-28T01:33:48;-2.40;99.90
28654;DHT22;24320;56.980;24.336;2023-02-28T01:36:20;-2.40;99.90
28654;DHT22;24320;56.980;24.336;2023-02-28T01:38:49;-2.40;99.90
28654;DHT22;24320;56.980;24.336;2023-02-28T01:41:28;-2.40;99.90
28654;DHT22;24320;56.980;24.336;2023-02-28T01:43:58;-2.40;99.90
28654;DHT22;24320;56.980;24.336;2023-02-28T01:46:25;-2.50;99.90
28654;DHT22;24320;56.980;24.336;2023-02-28T01:49:02;-2.50;99.90
28654;DHT22;24320;56.980;24.336;2023-02-28T01:51:42;-2.60;99.90
28654;DHT22;24320;56.980;24.336;2023-02-28T01:54:26;-2.60;99.90
28654;DHT22;24320;56.980;24.336;2023-02-28T01:57:03;-2.60;99.90
28654;DHT22;24320;56.980;24.336;2023-02-28T01:59:48;-2.70;99.90
28654;DHT22;24320;56.980;24.336;2023-02-28T02:02:19;-2.80;99.90
28654;DHT22;24320;56.980;24.336;2023-02-28T02:05:21;-2.90;99.90
28654;DHT22;24320;56.980;24.336;2023-02-28T02:07:50;-2.90;99.90
28654;DHT22;24320;56.980;24.336;2023-02-28T02:10:31;-3.00;99.90
28654;DHT22;24320;56.980;24.336;2023-02-28T02:18:50;-3.10;99.90
28654;DHT22;24320;56.980;24.336;2023-02-28T02:34:42;-3.00;99.90
28654;DHT22;24320;56.980;24.336;2023-02-28T02:37:28;-2.90;99.90
28654;DHT22;24320;56.980;24.336;2023-02-28T02:40:19;-2.80;99.90
28654;DHT22;24320;56.980;24.336;2023-02-28T02:42:56;-2.90;99.90
28654;DHT22;24320;56.980;24.336;2023-02-28T02:45:44;-2.90;99.90
28654;DHT22;24320;56.980;24.336;2023-02-28T02:48:15;-3.00;99.90
28654;DHT22;24320;56.980;24.336;2023-02-28T02:50:48;-3.00;99.90
28654;DHT22;24320;56.980;24.336;2023-02-28T02:53:18;-3.00;99.90
28654;DHT22;24320;56.980;24.336;2023-02-28T02:55:49;-3.00;99.90
28654;DHT22;24320;56.980;24.336;2023-02-28T02:58:25;-2.90;99.90
28654;DHT22;24320;56.980;24.336;2023-02-28T03:00:57;-2.90;99.90
28654;DHT22;24320;56.980;24.336;2023-02-28T03:03:28;-2.90;99.90
28654;DHT22;24320;56.980;24.336;2023-02-28T03:06:00;-2.90;99.90
28654;DHT22;24320;56.980;24.336;2023-02-28T03:08:29;-2.80;99.90
28654;DHT22;24320;56.980;24.336;2023-02-28T03:10:59;-2.80;99.90
28654;DHT22;24320;56.980;24.336;2023-02-28T03:13:44;-2.80;99.90
28654;DHT22;24320;56.980;24.336;2023-02-28T03:27:26;-2.90;99.90
28654;DHT22;24320;56.980;24.336;2023-02-28T03:33:17;-2.90;99.90
28654;DHT22;24320;56.980;24.336;2023-02-28T03:36:24;-2.90;99.90
28654;DHT22;24320;56.980;24.336;2023-02-28T03:38:49;-2.80;99.90
28654;DHT22;24320;56.980;24.336;2023-02-28T03:41:25;-2.80;99.90
28654;DHT22;24320;56.980;24.336;2023-02-28T03:44:29;-2.80;99.90
28654;DHT22;24320;56.980;24.336;2023-02-28T03:46:58;-2.70;99.90
28654;DHT22;24320;56.980;24.336;2023-02-28T03:49:32;-2.60;99.90
28654;DHT22;24320;56.980;24.336;2023-02-28T03:52:05;-2.40;99.90
28654;DHT22;24320;56.980;24.336;2023-02-28T03:54:37;-2.20;99.90
28654;DHT22;24320;56.980;24.336;2023-02-28T04:00:08;-1.70;99.90
28654;DHT22;24320;56.980;24.336;2023-02-28T04:02:36;-1.50;99.90
28654;DHT22;24320;56.980;24.336;2023-02-28T04:05:03;-1.40;99.90
28654;DHT22;24320;56.980;24.336;2023-02-28T04:07:31;-1.20;99.90
28654;DHT22;24320;56.980;24.336;2023-02-28T04:09:58;-1.20;99.90
28654;DHT22;24320;56.980;24.336;2023-02-28T04:12:26;-1.10;99.90
28654;DHT22;24320;56.980;24.336;2023-02-28T04:14:53;-1.00;99.90
28654;DHT22;24320;56.980;24.336;2023-02-28T04:17:20;-1.00;99.90
28654;DHT22;24320;56.980;24.336;2023-02-28T04:19:47;-0.90;99.90
28654;DHT22;24320;56.980;24.336;2023-02-28T04:22:14;-0.80;99.90
28654;DHT22;24320;56.980;24.336;2023-02-28T04:24:41;-0.70;99.90
28654;DHT22;24320;56.980;24.336;2023-02-28T04:27:08;-0.60;99.90
28654;DHT22;24320;56.980;24.336;2023-02-28T04:29:35;-0.50;99.90
28654;DHT22;24320;56.980;24.336;2023-02-28T04:32:03;-0.40;99.90
28654;DHT22;24320;56.980;24.336;2023-02-28T04:34:31;-0.30;99.90
28654;DHT22;24320;56.980;24.336;2023-02-28T04:36:59;-0.20;99.90
28654;DHT22;24320;56.980;24.336;2023-02-28T04:39:43;-0.10;99.90
28654;DHT22;24320;56.980;24.336;2023-02-28T04:42:11;0.00;99.90
28654;DHT22;24320;56.980;24.336;2023-02-28T04:44:38;0.00;99.90
28654;DHT22;24320;56.980;24.336;2023-02-28T04:47:05;0.10;99.90
28654;DHT22;24320;56.980;24.336;2023-02-28T04:49:33;0.20;99.90
28654;DHT22;24320;56.980;24.336;2023-02-28T04:52:00;0.20;99.90
28654;DHT22;24320;56.980;24.336;2023-02-28T04:54:27;0.30;99.90
28654;DHT22;24320;56.980;24.336;2023-02-28T04:56:55;0.40;99.90
28654;DHT22;24320;56.980;24.336;2023-02-28T04:59:22;0.30;99.90
28654;DHT22;24320;56.980;24.336;2023-02-28T05:01:49;0.30;99.90
28654;DHT22;24320;56.980;24.336;2023-02-28T05:04:16;0.40;99.90
28654;DHT22;24320;56.980;24.336;2023-02-28T05:06:44;0.40;99.90
28654;DHT22;24320;56.980;24.336;2023-02-28T05:09:11;0.40;99.90
28654;DHT22;24320;56.980;24.336;2023-02-28T05:11:38;0.40;99.90
28654;DHT22;24320;56.980;24.336;2023-02-28T05:14:13;0.50;99.90
28654;DHT22;24320;56.980;24.336;2023-02-28T05:16:41;0.50;99.90
28654;DHT22;24320;56.980;24.336;2023-02-28T05:19:08;0.50;99.90
28654;DHT22;24320;56.980;24.336;2023-02-28T05:21:38;0.60;99.90
28654;DHT22;24320;56.980;24.336;2023-02-28T05:24:10;0.60;99.90
28654;DHT22;24320;56.980;24.336;2023-02-28T05:26:40;0.70;99.90
28654;DHT22;24320;56.980;24.336;2023-02-28T05:29:07;0.70;99.90
28654;DHT22;24320;56.980;24.336;2023-02-28T05:31:34;0.80;99.90
28654;DHT22;24320;56.980;24.336;2023-02-28T05:34:01;0.80;99.90
28654;DHT22;24320;56.980;24.336;2023-02-28T05:36:31;0.90;99.90
28654;DHT22;24320;56.980;24.336;2023-02-28T05:38:58;0.90;99.90
28654;DHT22;24320;56.980;24.336;2023-02-28T05:41:25;1.00;99.90
28654;DHT22;24320;56.980;24.336;2023-02-28T05:43:53;0.90;99.90
28654;DHT22;24320;56.980;24.336;2023-02-28T05:46:20;1.00;99.90
28654;DHT22;24320;56.980;24.336;2023-02-28T05:48:48;1.00;99.90
28654;DHT22;24320;56.980;24.336;2023-02-28T05:51:16;1.10;99.90
28654;DHT22;24320;56.980;24.336;2023-02-28T05:53:43;1.10;99.90
28654;DHT22;24320;56.980;24.336;2023-02-28T05:56:10;1.10;99.90
28654;DHT22;24320;56.980;24.336;2023-02-28T05:58:37;1.20;99.90
28654;DHT22;24320;56.980;24.336;2023-02-28T06:01:33;1.30;99.90
28654;DHT22;24320;56.980;24.336;2023-02-28T06:04:02;1.40;99.90
28654;DHT22;24320;56.980;24.336;2023-02-28T06:06:29;1.40;99.90
28654;DHT22;24320;56.980;24.336;2023-02-28T06:08:56;1.50;99.90
28654;DHT22;24320;56.980;24.336;2023-02-28T06:11:23;1.60;99.90
28654;DHT22;24320;56.980;24.336;2023-02-28T06:13:55;1.70;99.90
28654;DHT22;24320;56.980;24.336;2023-02-28T06:16:24;1.70;99.90
28654;DHT22;24320;56.980;24.336;2023-02-28T06:18:51;1.90;99.90
28654;DHT22;24320;56.980;24.336;2023-02-28T06:21:19;1.90;99.90
28654;DHT22;24320;56.980;24.336;2023-02-28T06:23:46;2.10;99.90
28654;DHT22;24320;56.980;24.336;2023-02-28T06:26:14;2.20;99.90
28654;DHT22;24320;56.980;24.336;2023-02-28T06:28:41;2.30;99.90
28654;DHT22;24320;56.980;24.336;2023-02-28T06:31:13;2.40;99.90
28654;DHT22;24320;56.980;24.336;2023-02-28T06:33:41;2.60;99.90
28654;DHT22;24320;56.980;24.336;2023-02-28T06:36:10;2.70;99.90
28654;DHT22;24320;56.980;24.336;2023-02-28T06:38:38;2.80;99.90
28654;DHT22;24320;56.980;24.336;2023-02-28T06:41:05;2.90;99.90
28654;DHT22;24320;56.980;24.336;2023-02-28T06:43:35;2.90;99.90
28654;DHT22;24320;56.980;24.336;2023-02-28T06:46:04;3.10;99.90
28654;DHT22;24320;56.980;24.336;2023-02-28T06:48:32;3.60;99.90
28654;DHT22;24320;56.980;24.336;2023-02-28T06:51:13;4.20;99.90
28654;DHT22;24320;56.980;24.336;2023-02-28T06:53:40;4.90;99.90
28654;DHT22;24320;56.980;24.336;2023-02-28T06:56:11;5.30;99.90
28654;DHT22;24320;56.980;24.336;2023-02-28T06:58:39;5.50;99.90
28654;DHT22;24320;56.980;24.336;2023-02-28T07:01:07;5.80;99.90
28654;DHT22;24320;56.980;24.336;2023-02-28T07:03:35;6.10;99.90
28654;DHT22;24320;56.980;24.336;2023-02-28T07:06:04;6.40;99.90
28654;DHT22;24320;56.980;24.336;2023-02-28T07:08:31;6.40;99.90
28654;DHT22;24320;56.980;24.336;2023-02-28T07:10:58;6.70;99.90
28654;DHT22;24320;56.980;24.336;2023-02-28T07:13:25;6.80;99.90
28654;DHT22;24320;56.980;24.336;2023-02-28T07:15:57;7.00;99.90
28654;DHT22;24320;56.980;24.336;2023-02-28T07:18:26;6.80;99.90
28654;DHT22;24320;56.980;24.336;2023-02-28T07:20:53;6.30;99.90
28654;DHT22;24320;56.980;24.336;2023-02-28T07:23:21;6.00;99.90
28654;DHT22;24320;56.980;24.336;2023-02-28T07:25:50;5.80;99.90
28654;DHT22;24320;56.980;24.336;2023-02-28T07:28:17;5.80;99.90
28654;DHT22;24320;56.980;24.336;2023-02-28T07:30:44;5.80;99.90
28654;DHT22;24320;56.980;24.336;2023-02-28T07:33:11;6.10;99.90
28654;DHT22;24320;56.980;24.336;2023-02-28T07:35:38;6.30;99.90
28654;DHT22;24320;56.980;24.336;2023-02-28T07:40:41;6.80;99.90
28654;DHT22;24320;56.980;24.336;2023-02-28T07:43:08;7.00;99.90
28654;DHT22;24320;56.980;24.336;2023-02-28T07:45:35;7.10;99.90
28654;DHT22;24320;56.980;24.336;2023-02-28T07:48:02;7.20;99.90
28654;DHT22;24320;56.980;24.336;2023-02-28T07:50:29;7.30;99.90
28654;DHT22;24320;56.980;24.336;2023-02-28T07:52:58;7.40;99.90
28654;DHT22;24320;56.980;24.336;2023-02-28T07:55:25;7.60;99.90
28654;DHT22;24320;56.980;24.336;2023-02-28T07:57:53;7.90;99.90
28654;DHT22;24320;56.980;24.336;2023-02-28T08:00:20;8.00;99.90
28654;DHT22;24320;56.980;24.336;2023-02-28T08:02:48;8.10;99.90
28654;DHT22;24320;56.980;24.336;2023-02-28T08:05:15;8.10;99.90
28654;DHT22;24320;56.980;24.336;2023-02-28T08:07:45;7.80;99.90
28654;DHT22;24320;56.980;24.336;2023-02-28T08:10:14;7.60;99.90
28654;DHT22;24320;56.980;24.336;2023-02-28T08:12:41;7.60;99.90
28654;DHT22;24320;56.980;24.336;2023-02-28T08:15:08;7.50;99.90
28654;DHT22;24320;56.980;24.336;2023-02-28T08:17:36;7.30;99.90
28654;DHT22;24320;56.980;24.336;2023-02-28T08:20:03;7.00;99.90
28654;DHT22;24320;56.980;24.336;2023-02-28T08:22:31;7.00;99.90
28654;DHT22;24320;56.980;24.336;2023-02-28T08:24:58;6.80;99.90
28654;DHT22;24320;56.980;24.336;2023-02-28T08:27:25;6.80;99.90
28654;DHT22;24320;56.980;24.336;2023-02-28T08:29:52;6.70;99.90
28654;DHT22;24320;56.980;24.336;2023-02-28T08:32:19;6.70;99.90
28654;DHT22;24320;56.980;24.336;2023-02-28T08:34:56;6.60;99.90
28654;DHT22;24320;56.980;24.336;2023-02-28T08:37:23;6.50;99.90
28654;DHT22;24320;56.980;24.336;2023-02-28T08:39:50;6.50;99.90
28654;DHT22;24320;56.980;24.336;2023-02-28T08:42:21;6.60;99.90
28654;DHT22;24320;56.980;24.336;2023-02-28T08:44:48;6.80;99.90
28654;DHT22;24320;56.980;24.336;2023-02-28T08:47:16;6.90;99.90
28654;DHT22;24320;56.980;24.336;2023-02-28T08:49:43;6.90;99.90
28654;DHT22;24320;56.980;24.336;2023-02-28T08:52:10;6.90;99.90
28654;DHT22;24320;56.980;24.336;2023-02-28T08:54:37;6.90;99.90
28654;DHT22;24320;56.980;24.336;2023-02-28T08:57:05;7.00;99.90
28654;DHT22;24320;56.980;24.336;2023-02-28T08:59:32;7.00;99.90
28654;DHT22;24320;56.980;24.336;2023-02-28T09:01:59;7.00;99.90
28654;DHT22;24320;56.980;24.336;2023-02-28T09:04:26;7.00;99.90
28654;DHT22;24320;56.980;24.336;2023-02-28T09:06:54;6.90;99.90
28654;DHT22;24320;56.980;24.336;2023-02-28T09:09:21;6.90;99.90
28654;DHT22;24320;56.980;24.336;2023-02-28T09:11:48;6.80;99.90
28654;DHT22;24320;56.980;24.336;2023-02-28T09:14:15;6.80;99.90
28654;DHT22;24320;56.980;24.336;2023-02-28T09:16:44;6.90;99.90
28654;DHT22;24320;56.980;24.336;2023-02-28T09:19:12;6.90;99.90
28654;DHT22;24320;56.980;24.336;2023-02-28T09:21:39;6.80;99.90
28654;DHT22;24320;56.980;24.336;2023-02-28T09:24:07;6.80;99.90
28654;DHT22;24320;56.980;24.336;2023-02-28T09:26:34;6.90;99.90
28654;DHT22;24320;56.980;24.336;2023-02-28T09:29:13;7.10;99.90
28654;DHT22;24320;56.980;24.336;2023-02-28T09:31:41;7.00;99.90
28654;DHT22;24320;56.980;24.336;2023-02-28T09:34:08;6.90;99.90
28654;DHT22;24320;56.980;24.336;2023-02-28T09:36:35;6.80;99.90
28654;DHT22;24320;56.980;24.336;2023-02-28T09:39:12;6.70;99.90
28654;DHT22;24320;56.980;24.336;2023-02-28T09:41:44;6.70;99.90
28654;DHT22;24320;56.980;24.336;2023-02-28T09:44:37;6.60;99.90
28654;DHT22;24320;56.980;24.336;2023-02-28T09:47:30;6.70;99.90
28654;DHT22;24320;56.980;24.336;2023-02-28T09:50:03;6.70;99.90
28654;DHT22;24320;56.980;24.336;2023-02-28T09:52:34;6.80;99.90
28654;DHT22;24320;56.980;24.336;2023-02-28T09:57:49;6.90;99.90
28654;DHT22;24320;56.980;24.336;2023-02-28T10:00:39;6.80;99.90
28654;DHT22;24320;56.980;24.336;2023-02-28T10:06:11;6.70;99.90
28654;DHT22;24320;56.980;24.336;2023-02-28T10:09:02;6.80;99.90
28654;DHT22;24320;56.980;24.336;2023-02-28T10:11:33;6.80;99.90
28654;DHT22;24320;56.980;24.336;2023-02-28T10:16:45;7.00;99.90
28654;DHT22;24320;56.980;24.336;2023-02-28T10:19:27;7.10;99.90
28654;DHT22;24320;56.980;24.336;2023-02-28T10:24:46;7.10;99.90
28654;DHT22;24320;56.980;24.336;2023-02-28T10:27:21;7.00;99.90
28654;DHT22;24320;56.980;24.336;2023-02-28T10:29:57;6.90;99.90
28654;DHT22;24320;56.980;24.336;2023-02-28T10:32:30;7.00;99.90
28654;DHT22;24320;56.980;24.336;2023-02-28T10:35:18;7.10;99.90
28654;DHT22;24320;56.980;24.336;2023-02-28T10:37:48;7.10;99.90
28654;DHT22;24320;56.980;24.336;2023-02-28T10:45:22;7.40;99.90
28654;DHT22;24320;56.980;24.336;2023-02-28T10:48:06;7.50;99.90
28654;DHT22;24320;56.980;24.336;2023-02-28T10:56:26;7.50;99.90
28654;DHT22;24320;56.980;24.336;2023-02-28T11:01:24;7.60;99.90
28654;DHT22;24320;56.980;24.336;2023-02-28T11:03:52;7.60;99.90
28654;DHT22;24320;56.980;24.336;2023-02-28T11:06:28;7.40;99.90
28654;DHT22;24320;56.980;24.336;2023-02-28T11:08:58;7.40;99.90
28654;DHT22;24320;56.980;24.336;2023-02-28T11:11:28;7.30;99.90
28654;DHT22;24320;56.980;24.336;2023-02-28T11:14:05;7.30;99.90
28654;DHT22;24320;56.980;24.336;2023-02-28T11:16:35;7.30;99.90
28654;DHT22;24320;56.980;24.336;2023-02-28T11:19:06;7.50;99.90
28654;DHT22;24320;56.980;24.336;2023-02-28T11:21:35;7.60;99.90
28654;DHT22;24320;56.980;24.336;2023-02-28T11:24:35;7.50;99.90
28654;DHT22;24320;56.980;24.336;2023-02-28T11:27:03;7.50;99.90
28654;DHT22;24320;56.980;24.336;2023-02-28T11:29:32;7.40;99.90
28654;DHT22;24320;56.980;24.336;2023-02-28T11:34:30;7.50;99.90
28654;DHT22;24320;56.980;24.336;2023-02-28T11:36:59;7.50;99.90
28654;DHT22;24320;56.980;24.336;2023-02-28T11:39:27;7.50;99.90
28654;DHT22;24320;56.980;24.336;2023-02-28T11:47:17;7.10;99.90
28654;DHT22;24320;56.980;24.336;2023-02-28T11:50:20;7.00;99.90
28654;DHT22;24320;56.980;24.336;2023-02-28T11:52:54;7.10;99.90
28654;DHT22;24320;56.980;24.336;2023-02-28T11:55:38;7.20;99.90
28654;DHT22;24320;56.980;24.336;2023-02-28T12:01:07;7.10;99.90
28654;DHT22;24320;56.980;24.336;2023-02-28T12:06:50;6.90;99.90
28654;DHT22;24320;56.980;24.336;2023-02-28T12:15:20;6.70;99.90
28654;DHT22;24320;56.980;24.336;2023-02-28T12:18:12;6.60;99.90
28654;DHT22;24320;56.980;24.336;2023-02-28T12:21:13;6.50;99.90
28654;DHT22;24320;56.980;24.336;2023-02-28T12:23:44;6.60;99.90
28654;DHT22;24320;56.980;24.336;2023-02-28T12:29:17;6.90;99.90
28654;DHT22;24320;56.980;24.336;2023-02-28T12:31:56;6.80;99.90
28654;DHT22;24320;56.980;24.336;2023-02-28T12:34:31;6.80;99.90
28654;DHT22;24320;56.980;24.336;2023-02-28T12:37:15;6.80;99.90
28654;DHT22;24320;56.980;24.336;2023-02-28T12:39:47;6.70;99.90
28654;DHT22;24320;56.980;24.336;2023-02-28T12:42:24;6.70;99.90
28654;DHT22;24320;56.980;24.336;2023-02-28T12:45:59;6.70;99.90
28654;DHT22;24320;56.980;24.336;2023-02-28T12:48:15;6.70;99.90
28654;DHT22;24320;56.980;24.336;2023-02-28T12:50:43;6.80;99.90
28654;DHT22;24320;56.980;24.336;2023-02-28T13:06:43;6.60;99.90
28654;DHT22;24320;56.980;24.336;2023-02-28T13:09:16;6.50;99.90
28654;DHT22;24320;56.980;24.336;2023-02-28T13:11:49;6.40;99.90
28654;DHT22;24320;56.980;24.336;2023-02-28T13:14:36;6.40;99.90
28654;DHT22;24320;56.980;24.336;2023-02-28T13:17:10;6.50;99.90
28654;DHT22;24320;56.980;24.336;2023-02-28T13:19:46;6.60;99.90
28654;DHT22;24320;56.980;24.336;2023-02-28T13:24:53;6.70;99.90
28654;DHT22;24320;56.980;24.336;2023-02-28T13:27:33;6.50;99.90
28654;DHT22;24320;56.980;24.336;2023-02-28T13:30:00;6.40;99.90
28654;DHT22;24320;56.980;24.336;2023-02-28T13:32:32;6.30;99.90
28654;DHT22;24320;56.980;24.336;2023-02-28T13:42:47;6.00;99.90
28654;DHT22;24320;56.980;24.336;2023-02-28T13:45:27;6.00;99.90
28654;DHT22;24320;56.980;24.336;2023-02-28T13:48:02;5.90;99.90
28654;DHT22;24320;56.980;24.336;2023-02-28T13:50:35;5.90;99.90
28654;DHT22;24320;56.980;24.336;2023-02-28T13:56:01;5.90;99.90
28654;DHT22;24320;56.980;24.336;2023-02-28T13:58:55;6.00;99.90
28654;DHT22;24320;56.980;24.336;2023-02-28T14:01:45;6.00;99.90
28654;DHT22;24320;56.980;24.336;2023-02-28T14:05:00;6.00;99.90
28654;DHT22;24320;56.980;24.336;2023-02-28T14:07:46;6.00;99.90
28654;DHT22;24320;56.980;24.336;2023-02-28T14:10:32;5.90;99.90
28654;DHT22;24320;56.980;24.336;2023-02-28T14:18:18;5.70;99.90
28654;DHT22;24320;56.980;24.336;2023-02-28T14:20:47;5.70;99.90
28654;DHT22;24320;56.980;24.336;2023-02-28T14:29:30;5.60;99.90
28654;DHT22;24320;56.980;24.336;2023-02-28T14:37:30;5.30;99.90
28654;DHT22;24320;56.980;24.336;2023-02-28T14:39:59;5.30;99.90
28654;DHT22;24320;56.980;24.336;2023-02-28T14:42:37;5.30;99.90
28654;DHT22;24320;56.980;24.336;2023-02-28T14:45:19;5.20;99.90
28654;DHT22;24320;56.980;24.336;2023-02-28T14:47:48;5.10;99.90
28654;DHT22;24320;56.980;24.336;2023-02-28T14:50:28;5.10;99.90
28654;DHT22;24320;56.980;24.336;2023-02-28T14:52:57;5.00;99.90
28654;DHT22;24320;56.980;24.336;2023-02-28T14:55:31;5.00;99.90
28654;DHT22;24320;56.980;24.336;2023-02-28T14:58:04;4.90;99.90
28654;DHT22;24320;56.980;24.336;2023-02-28T15:00:46;4.90;99.90
28654;DHT22;24320;56.980;24.336;2023-02-28T15:03:23;4.90;99.90
28654;DHT22;24320;56.980;24.336;2023-02-28T15:05:59;4.90;99.90
28654;DHT22;24320;56.980;24.336;2023-02-28T15:08:26;4.80;99.90
28654;DHT22;24320;56.980;24.336;2023-02-28T15:13:43;4.70;99.90
28654;DHT22;24320;56.980;24.336;2023-02-28T15:16:33;4.70;99.90
28654;DHT22;24320;56.980;24.336;2023-02-28T15:19:07;4.60;99.90
28654;DHT22;24320;56.980;24.336;2023-02-28T15:21:44;4.60;99.90
28654;DHT22;24320;56.980;24.336;2023-02-28T15:24:37;4.50;99.90
28654;DHT22;24320;56.980;24.336;2023-02-28T15:27:14;4.50;99.90
28654;DHT22;24320;56.980;24.336;2023-02-28T15:29:48;4.40;99.90
28654;DHT22;24320;56.980;24.336;2023-02-28T15:34:56;4.30;99.90
28654;DHT22;24320;56.980;24.336;2023-02-28T15:43:17;4.20;99.90
28654;DHT22;24320;56.980;24.336;2023-02-28T15:45:50;4.20;99.90
28654;DHT22;24320;56.980;24.336;2023-02-28T15:48:32;4.20;99.90
28654;DHT22;24320;56.980;24.336;2023-02-28T15:51:22;4.20;99.90
28654;DHT22;24320;56.980;24.336;2023-02-28T15:54:07;4.10;99.90
28654;DHT22;24320;56.980;24.336;2023-02-28T15:56:46;4.10;99.90
28654;DHT22;24320;56.980;24.336;2023-02-28T15:59:20;4.10;99.90
28654;DHT22;24320;56.980;24.336;2023-02-28T16:02:03;4.00;99.90
28654;DHT22;24320;56.980;24.336;2023-02-28T16:04:31;4.00;99.90
28654;DHT22;24320;56.980;24.336;2023-02-28T16:09:25;4.00;99.90
28654;DHT22;24320;56.980;24.336;2023-02-28T16:11:55;4.00;99.90
28654;DHT22;24320;56.980;24.336;2023-02-28T16:14:25;4.10;99.90
28654;DHT22;24320;56.980;24.336;2023-02-28T16:17:03;4.10;99.90
28654;DHT22;24320;56.980;24.336;2023-02-28T16:19:32;4.10;99.90
28654;DHT22;24320;56.980;24.336;2023-02-28T16:22:00;4.00;99.90
28654;DHT22;24320;56.980;24.336;2023-02-28T16:24:27;4.00;99.90
28654;DHT22;24320;56.980;24.336;2023-02-28T16:26:55;4.00;99.90
28654;DHT22;24320;56.980;24.336;2023-02-28T16:29:30;4.00;99.90
28654;DHT22;24320;56.980;24.336;2023-02-28T16:31:57;3.90;99.90
28654;DHT22;24320;56.980;24.336;2023-02-28T16:34:25;3.80;99.90
28654;DHT22;24320;56.980;24.336;2023-02-28T16:36:52;3.80;99.90
28654;DHT22;24320;56.980;24.336;2023-02-28T16:39:19;3.70;99.90
28654;DHT22;24320;56.980;24.336;2023-02-28T16:41:50;3.70;99.90
28654;DHT22;24320;56.980;24.336;2023-02-28T16:47:03;3.60;99.90
28654;DHT22;24320;56.980;24.336;2023-02-28T16:49:30;3.50;99.90
28654;DHT22;24320;56.980;24.336;2023-02-28T16:51:57;3.50;99.90
28654;DHT22;24320;56.980;24.336;2023-02-28T16:54:24;3.40;99.90
28654;DHT22;24320;56.980;24.336;2023-02-28T16:56:52;3.40;99.90
28654;DHT22;24320;56.980;24.336;2023-02-28T16:59:23;3.30;99.90
28654;DHT22;24320;56.980;24.336;2023-02-28T17:01:51;3.30;99.90
28654;DHT22;24320;56.980;24.336;2023-02-28T17:04:19;3.30;99.90
28654;DHT22;24320;56.980;24.336;2023-02-28T17:06:46;3.20;99.90
28654;DHT22;24320;56.980;24.336;2023-02-28T17:09:24;3.20;99.90
28654;DHT22;24320;56.980;24.336;2023-02-28T17:12:07;3.20;99.90
28654;DHT22;24320;56.980;24.336;2023-02-28T17:14:35;3.10;99.90
28654;DHT22;24320;56.980;24.336;2023-02-28T17:17:04;3.10;99.90
28654;DHT22;24320;56.980;24.336;2023-02-28T17:19:31;3.10;99.90
28654;DHT22;24320;56.980;24.336;2023-02-28T17:21:58;3.10;99.90
28654;DHT22;24320;56.980;24.336;2023-02-28T17:24:25;3.00;99.90
28654;DHT22;24320;56.980;24.336;2023-02-28T17:26:57;3.00;99.90
28654;DHT22;24320;56.980;24.336;2023-02-28T17:29:24;3.00;99.90
28654;DHT22;24320;56.980;24.336;2023-02-28T17:31:51;3.00;99.90
28654;DHT22;24320;56.980;24.336;2023-02-28T17:34:19;3.00;99.90
28654;DHT22;24320;56.980;24.336;2023-02-28T17:36:50;3.00;99.90
28654;DHT22;24320;56.980;24.336;2023-02-28T17:39:19;3.00;99.90
28654;DHT22;24320;56.980;24.336;2023-02-28T17:41:51;3.00;99.90
28654;DHT22;24320;56.980;24.336;2023-02-28T17:44:20;3.00;99.90
28654;DHT22;24320;56.980;24.336;2023-02-28T17:46:47;3.00;99.90
28654;DHT22;24320;56.980;24.336;2023-02-28T17:49:17;3.00;99.90
28654;DHT22;24320;56.980;24.336;2023-02-28T17:51:45;3.00;99.90
28654;DHT22;24320;56.980;24.336;2023-02-28T17:54:13;3.00;99.90
28654;DHT22;24320;56.980;24.336;2023-02-28T17:56:44;3.00;99.90
28654;DHT22;24320;56.980;24.336;2023-02-28T17:59:12;2.90;99.90
28654;DHT22;24320;56.980;24.336;2023-02-28T18:01:39;2.90;99.90
28654;DHT22;24320;56.980;24.336;2023-02-28T18:04:09;2.90;99.90
28654;DHT22;24320;56.980;24.336;2023-02-28T18:06:39;2.90;99.90
28654;DHT22;24320;56.980;24.336;2023-02-28T18:09:15;2.90;99.90
28654;DHT22;24320;56.980;24.336;2023-02-28T18:11:42;2.80;99.90
28654;DHT22;24320;56.980;24.336;2023-02-28T18:14:11;2.80;99.90
28654;DHT22;24320;56.980;24.336;2023-02-28T18:16:38;2.80;99.90
28654;DHT22;24320;56.980;24.336;2023-02-28T18:19:06;2.70;99.90
28654;DHT22;24320;56.980;24.336;2023-02-28T18:21:34;2.70;99.90